sensor_id;sensor_type;location;lat;lon;timestamp;pressure;altitude;pressure_sealevel;temperature;humidity
18749;BME280;9503;53.560;10.246;2023-05-25T00:02:09;101754.00;;;15.38;75.33
18749;BME280;9503;53.560;10.246;2023-05-25T00:04:39;101758.06;;;15.33;75.75
18749;BME280;9503;53.560;10.246;2023-05-25T00:07:06;101752.84;;;15.32;75.26
18749;BME280;9503;53.560;10.246;2023-05-25T00:09:33;101758.41;;;15.22;75.25
18749;BME280;9503;53.560;10.246;2023-05-25T00:12:00;101754.97;;;15.21;75.26
18749;BME280;9503;53.560;10.246;2023-05-25T00:14:27;101756.28;;;15.13;75.38
18749;BME280;9503;53.560;10.246;2023-05-25T00:16:58;101758.66;;;15.08;75.51
18749;BME280;9503;53.560;10.246;2023-05-25T00:19:28;101762.53;;;14.99;75.67
18749;BME280;9503;53.560;10.246;2023-05-25T00:21:56;101759.31;;;15.04;75.64
18749;BME280;9503;53.560;10.246;2023-05-25T00:24:27;101769.41;;;15.17;75.38
18749;BME280;9503;53.560;10.246;2023-05-25T00:26:53;101774.16;;;15.08;75.75
18749;BME280;9503;53.560;10.246;2023-05-25T00:29:20;101772.25;;;15.04;75.68
18749;BME280;9503;53.560;10.246;2023-05-25T00:31:47;101774.75;;;15.03;76.03
18749;BME280;9503;53.560;10.246;2023-05-25T00:34:16;101773.56;;;14.96;76.19
18749;BME280;9503;53.560;10.246;2023-05-25T00:36:43;101772.63;;;14.94;76.37
18749;BME280;9503;53.560;10.246;2023-05-25T00:39:12;101772.56;;;14.92;76.42
18749;BME280;9503;53.560;10.246;2023-05-25T00:41:39;101772.41;;;14.89;76.89
18749;BME280;9503;53.560;10.246;2023-05-25T00:44:08;101773.38;;;14.91;76.68
18749;BME280;9503;53.560;10.246;2023-05-25T00:46:35;101765.38;;;15.05;76.04
18749;BME280;9503;53.560;10.246;2023-05-25T00:49:03;101768.31;;;15.12;75.60
18749;BME280;9503;53.560;10.246;2023-05-25T00:51:31;101765.59;;;15.09;75.70
18749;BME280;9503;53.560;10.246;2023-05-25T00:53:58;101767.94;;;15.05;75.98
18749;BME280;9503;53.560;10.246;2023-05-25T00:56:28;101765.53;;;15.08;75.71
18749;BME280;9503;53.560;10.246;2023-05-25T00:58:56;101761.31;;;15.10;75.68
18749;BME280;9503;53.560;10.246;2023-05-25T01:01:26;101772.59;;;15.12;75.31
18749;BME280;9503;53.560;10.246;2023-05-25T01:03:58;101775.94;;;15.09;75.80
18749;BME280;9503;53.560;10.246;2023-05-25T01:06:30;101773.41;;;15.11;75.84
18749;BME280;9503;53.560;10.246;2023-05-25T01:09:00;101769.06;;;15.10;75.56
18749;BME280;9503;53.560;10.246;2023-05-25T01:11:31;101758.31;;;15.01;75.50
18749;BME280;9503;53.560;10.246;2023-05-25T01:13:58;101759.84;;;14.97;76.32
18749;BME280;9503;53.560;10.246;2023-05-25T01:16:25;101762.53;;;14.99;76.86
18749;BME280;9503;53.560;10.246;2023-05-25T01:18:51;101767.16;;;15.06;75.95
18749;BME280;9503;53.560;10.246;2023-05-25T01:21:22;101766.25;;;15.05;75.51
18749;BME280;9503;53.560;10.246;2023-05-25T01:23:55;101766.06;;;15.01;75.89
18749;BME280;9503;53.560;10.246;2023-05-25T01:26:25;101768.78;;;15.04;75.89
18749;BME280;9503;53.560;10.246;2023-05-25T01:28:56;101771.34;;;15.04;75.55
18749;BME280;9503;53.560;10.246;2023-05-25T01:31:23;101775.69;;;15.05;76.46
18749;BME280;9503;53.560;10.246;2023-05-25T01:33:50;101778.16;;;15.02;75.79
18749;BME280;9503;53.560;10.246;2023-05-25T01:36:20;101778.69;;;14.95;75.76
18749;BME280;9503;53.560;10.246;2023-05-25T01:38:47;101775.97;;;14.91;75.67
18749;BME280;9503;53.560;10.246;2023-05-25T01:41:14;101782.72;;;14.89;75.83
18749;BME280;9503;53.560;10.246;2023-05-25T01:43:41;101776.84;;;14.92;75.64
18749;BME280;9503;53.560;10.246;2023-05-25T01:46:25;101766.16;;;14.84;75.57
18749;BME280;9503;53.560;10.246;2023-05-25T01:49:01;101771.03;;;14.78;75.35
18749;BME280;9503;53.560;10.246;2023-05-25T01:51:37;101770.13;;;14.78;75.56
18749;BME280;9503;53.560;10.246;2023-05-25T01:54:08;101776.50;;;14.84;75.75
18749;BME280;9503;53.560;10.246;2023-05-25T01:56:37;101768.22;;;14.91;75.37
18749;BME280;9503;53.560;10.246;2023-05-25T01:59:06;101765.94;;;14.80;75.87
18749;BME280;9503;53.560;10.246;2023-05-25T02:01:34;101764.00;;;14.76;75.91
18749;BME280;9503;53.560;10.246;2023-05-25T02:04:02;101762.97;;;14.72;76.23
18749;BME280;9503;53.560;10.246;2023-05-25T02:06:29;101768.91;;;14.70;75.82
18749;BME280;9503;53.560;10.246;2023-05-25T02:08:57;101764.50;;;14.69;75.80
18749;BME280;9503;53.560;10.246;2023-05-25T02:11:24;101764.38;;;14.65;75.71
18749;BME280;9503;53.560;10.246;2023-05-25T02:13:50;101764.63;;;14.70;76.04
18749;BME280;9503;53.560;10.246;2023-05-25T02:16:17;101760.78;;;14.62;75.91
18749;BME280;9503;53.560;10.246;2023-05-25T02:18:43;101761.56;;;14.61;75.74
18749;BME280;9503;53.560;10.246;2023-05-25T02:21:10;101767.47;;;14.58;76.07
18749;BME280;9503;53.560;10.246;2023-05-25T02:23:37;101761.38;;;14.56;75.64
18749;BME280;9503;53.560;10.246;2023-05-25T02:26:05;101768.53;;;14.62;75.44
18749;BME280;9503;53.560;10.246;2023-05-25T02:28:31;101770.81;;;14.56;75.59
18749;BME280;9503;53.560;10.246;2023-05-25T02:30:58;101767.09;;;14.51;75.92
18749;BME280;9503;53.560;10.246;2023-05-25T02:33:25;101780.25;;;14.55;76.09
18749;BME280;9503;53.560;10.246;2023-05-25T02:35:51;101771.44;;;14.52;76.00
18749;BME280;9503;53.560;10.246;2023-05-25T02:38:18;101775.28;;;14.60;75.91
18749;BME280;9503;53.560;10.246;2023-05-25T02:40:45;101774.84;;;14.69;75.60
18749;BME280;9503;53.560;10.246;2023-05-25T02:43:13;101775.22;;;14.58;75.56
18749;BME280;9503;53.560;10.246;2023-05-25T02:45:39;101768.72;;;14.49;75.58
18749;BME280;9503;53.560;10.246;2023-05-25T02:48:06;101770.34;;;14.47;75.42
18749;BME280;9503;53.560;10.246;2023-05-25T02:50:32;101764.38;;;14.48;75.49
18749;BME280;9503;53.560;10.246;2023-05-25T02:52:59;101766.75;;;14.45;75.57
18749;BME280;9503;53.560;10.246;2023-05-25T02:55:25;101772.13;;;14.48;76.01
18749;BME280;9503;53.560;10.246;2023-05-25T02:57:52;101767.34;;;14.55;75.80
18749;BME280;9503;53.560;10.246;2023-05-25T03:00:23;101767.84;;;14.48;76.07
18749;BME280;9503;53.560;10.246;2023-05-25T03:02:49;101767.84;;;14.48;75.82
18749;BME280;9503;53.560;10.246;2023-05-25T03:05:16;101771.25;;;14.47;75.92
18749;BME280;9503;53.560;10.246;2023-05-25T03:07:43;101785.03;;;14.48;75.84
18749;BME280;9503;53.560;10.246;2023-05-25T03:10:10;101781.78;;;14.52;76.69
18749;BME280;9503;53.560;10.246;2023-05-25T03:12:37;101786.34;;;14.57;77.80
18749;BME280;9503;53.560;10.246;2023-05-25T03:15:06;101779.78;;;14.82;77.97
18749;BME280;9503;53.560;10.246;2023-05-25T03:17:34;101783.31;;;15.02;78.12
18749;BME280;9503;53.560;10.246;2023-05-25T03:20:01;101801.66;;;15.26;77.98
18749;BME280;9503;53.560;10.246;2023-05-25T03:22:30;101795.06;;;15.32;78.27
18749;BME280;9503;53.560;10.246;2023-05-25T03:24:56;101798.53;;;15.33;79.27
18749;BME280;9503;53.560;10.246;2023-05-25T03:27:23;101796.00;;;15.52;79.72
18749;BME280;9503;53.560;10.246;2023-05-25T03:29:50;101807.06;;;15.67;78.80
18749;BME280;9503;53.560;10.246;2023-05-25T03:32:17;101809.56;;;15.85;79.15
18749;BME280;9503;53.560;10.246;2023-05-25T03:34:44;101795.34;;;15.95;78.43
18749;BME280;9503;53.560;10.246;2023-05-25T03:37:11;101803.16;;;15.96;78.58
18749;BME280;9503;53.560;10.246;2023-05-25T03:39:38;101808.41;;;15.98;79.17
18749;BME280;9503;53.560;10.246;2023-05-25T03:42:05;101808.69;;;16.25;78.79
18749;BME280;9503;53.560;10.246;2023-05-25T03:44:31;101806.91;;;16.03;78.59
18749;BME280;9503;53.560;10.246;2023-05-25T03:46:58;101813.91;;;15.67;79.91
18749;BME280;9503;53.560;10.246;2023-05-25T03:49:25;101805.19;;;16.03;80.06
18749;BME280;9503;53.560;10.246;2023-05-25T03:51:53;101803.47;;;16.23;79.17
18749;BME280;9503;53.560;10.246;2023-05-25T03:54:20;101812.53;;;16.14;79.38
18749;BME280;9503;53.560;10.246;2023-05-25T03:56:47;101811.72;;;16.36;78.78
18749;BME280;9503;53.560;10.246;2023-05-25T03:59:13;101813.63;;;16.19;79.01
18749;BME280;9503;53.560;10.246;2023-05-25T04:01:40;101813.22;;;16.10;79.12
18749;BME280;9503;53.560;10.246;2023-05-25T04:04:06;101821.78;;;16.49;78.41
18749;BME280;9503;53.560;10.246;2023-05-25T04:06:33;101828.91;;;16.34;78.67
18749;BME280;9503;53.560;10.246;2023-05-25T04:09:03;101826.81;;;16.25;79.11
18749;BME280;9503;53.560;10.246;2023-05-25T04:11:29;101826.94;;;16.28;78.75
18749;BME280;9503;53.560;10.246;2023-05-25T04:13:56;101827.97;;;16.32;78.17
18749;BME280;9503;53.560;10.246;2023-05-25T04:16:24;101829.72;;;15.73;79.50
18749;BME280;9503;53.560;10.246;2023-05-25T04:18:51;101833.22;;;16.14;79.03
18749;BME280;9503;53.560;10.246;2023-05-25T04:21:17;101833.09;;;16.11;79.27
18749;BME280;9503;53.560;10.246;2023-05-25T04:23:44;101835.09;;;15.97;79.03
18749;BME280;9503;53.560;10.246;2023-05-25T04:26:12;101841.59;;;16.27;78.46
18749;BME280;9503;53.560;10.246;2023-05-25T04:28:39;101838.34;;;16.12;79.03
18749;BME280;9503;53.560;10.246;2023-05-25T04:31:06;101845.91;;;16.48;78.36
18749;BME280;9503;53.560;10.246;2023-05-25T04:33:34;101839.28;;;16.54;77.77
18749;BME280;9503;53.560;10.246;2023-05-25T04:36:03;101847.78;;;16.31;77.98
18749;BME280;9503;53.560;10.246;2023-05-25T04:38:29;101850.69;;;15.79;79.74
18749;BME280;9503;53.560;10.246;2023-05-25T04:40:57;101844.38;;;16.32;78.73
18749;BME280;9503;53.560;10.246;2023-05-25T04:43:27;101845.88;;;16.67;77.07
18749;BME280;9503;53.560;10.246;2023-05-25T04:45:54;101852.00;;;16.90;76.45
18749;BME280;9503;53.560;10.246;2023-05-25T04:48:22;101852.63;;;16.84;76.65
18749;BME280;9503;53.560;10.246;2023-05-25T04:50:49;101856.22;;;16.88;76.43
18749;BME280;9503;53.560;10.246;2023-05-25T04:53:17;101861.03;;;17.00;75.94
18749;BME280;9503;53.560;10.246;2023-05-25T04:55:43;101860.34;;;16.43;76.58
18749;BME280;9503;53.560;10.246;2023-05-25T04:58:10;101860.56;;;16.89;75.70
18749;BME280;9503;53.560;10.246;2023-05-25T05:00:38;101859.44;;;17.26;74.42
18749;BME280;9503;53.560;10.246;2023-05-25T05:03:05;101867.94;;;17.66;73.90
18749;BME280;9503;53.560;10.246;2023-05-25T05:05:32;101859.81;;;17.80;73.09
18749;BME280;9503;53.560;10.246;2023-05-25T05:07:59;101860.22;;;17.68;72.48
18749;BME280;9503;53.560;10.246;2023-05-25T05:10:27;101863.53;;;17.86;72.19
18749;BME280;9503;53.560;10.246;2023-05-25T05:12:54;101857.41;;;18.08;71.34
18749;BME280;9503;53.560;10.246;2023-05-25T05:15:21;101866.00;;;18.57;70.67
18749;BME280;9503;53.560;10.246;2023-05-25T05:17:49;101868.78;;;19.14;69.33
18749;BME280;9503;53.560;10.246;2023-05-25T05:20:15;101880.44;;;19.26;66.72
18749;BME280;9503;53.560;10.246;2023-05-25T05:22:42;101875.06;;;19.77;65.48
18749;BME280;9503;53.560;10.246;2023-05-25T05:25:10;101882.00;;;19.77;65.34
18749;BME280;9503;53.560;10.246;2023-05-25T05:27:36;101876.72;;;19.75;64.73
18749;BME280;9503;53.560;10.246;2023-05-25T05:30:04;101874.06;;;19.72;64.12
18749;BME280;9503;53.560;10.246;2023-05-25T05:32:30;101882.88;;;19.49;64.06
18749;BME280;9503;53.560;10.246;2023-05-25T05:34:59;101881.19;;;19.51;64.44
18749;BME280;9503;53.560;10.246;2023-05-25T05:37:25;101875.06;;;19.49;64.26
18749;BME280;9503;53.560;10.246;2023-05-25T05:39:52;101875.59;;;19.39;65.14
18749;BME280;9503;53.560;10.246;2023-05-25T05:42:18;101883.44;;;19.67;64.00
18749;BME280;9503;53.560;10.246;2023-05-25T05:44:45;101882.41;;;19.91;64.07
18749;BME280;9503;53.560;10.246;2023-05-25T05:47:12;101884.44;;;19.71;63.64
18749;BME280;9503;53.560;10.246;2023-05-25T05:49:38;101883.59;;;19.45;64.03
18749;BME280;9503;53.560;10.246;2023-05-25T05:52:07;101882.31;;;19.87;63.70
18749;BME280;9503;53.560;10.246;2023-05-25T05:54:34;101897.16;;;20.22;63.01
18749;BME280;9503;53.560;10.246;2023-05-25T05:57:00;101884.19;;;19.93;61.99
18749;BME280;9503;53.560;10.246;2023-05-25T05:59:27;101892.41;;;20.38;62.12
18749;BME280;9503;53.560;10.246;2023-05-25T06:01:54;101894.84;;;21.35;59.59
18749;BME280;9503;53.560;10.246;2023-05-25T06:04:21;101894.38;;;21.52;59.29
18749;BME280;9503;53.560;10.246;2023-05-25T06:06:49;101889.03;;;21.10;58.40
18749;BME280;9503;53.560;10.246;2023-05-25T06:09:17;101893.41;;;21.47;57.99
18749;BME280;9503;53.560;10.246;2023-05-25T06:11:44;101901.50;;;21.60;57.93
18749;BME280;9503;53.560;10.246;2023-05-25T06:14:10;101900.88;;;20.97;58.09
18749;BME280;9503;53.560;10.246;2023-05-25T06:16:37;101907.97;;;21.38;58.68
18749;BME280;9503;53.560;10.246;2023-05-25T06:19:04;101905.97;;;20.93;57.26
18749;BME280;9503;53.560;10.246;2023-05-25T06:21:30;101895.72;;;20.33;58.05
18749;BME280;9503;53.560;10.246;2023-05-25T06:23:57;101902.16;;;20.14;58.00
18749;BME280;9503;53.560;10.246;2023-05-25T06:26:25;101905.97;;;20.27;58.13
18749;BME280;9503;53.560;10.246;2023-05-25T06:28:52;101907.03;;;20.03;58.90
18749;BME280;9503;53.560;10.246;2023-05-25T06:31:19;101908.06;;;19.78;60.40
18749;BME280;9503;53.560;10.246;2023-05-25T06:33:45;101907.94;;;20.67;58.08
18749;BME280;9503;53.560;10.246;2023-05-25T06:36:12;101910.91;;;20.81;58.13
18749;BME280;9503;53.560;10.246;2023-05-25T06:38:39;101911.97;;;20.56;57.81
18749;BME280;9503;53.560;10.246;2023-05-25T06:41:06;101912.47;;;20.74;57.94
18749;BME280;9503;53.560;10.246;2023-05-25T06:43:35;101911.84;;;20.50;57.20
18749;BME280;9503;53.560;10.246;2023-05-25T06:46:01;101920.50;;;20.82;57.00
18749;BME280;9503;53.560;10.246;2023-05-25T06:48:28;101910.16;;;20.52;56.72
18749;BME280;9503;53.560;10.246;2023-05-25T06:50:54;101911.97;;;20.56;57.73
18749;BME280;9503;53.560;10.246;2023-05-25T06:53:24;101916.41;;;20.58;57.28
18749;BME280;9503;53.560;10.246;2023-05-25T06:55:50;101913.22;;;20.70;57.04
18749;BME280;9503;53.560;10.246;2023-05-25T06:58:17;101917.75;;;20.77;57.20
18749;BME280;9503;53.560;10.246;2023-05-25T07:00:45;101919.78;;;21.23;57.52
18749;BME280;9503;53.560;10.246;2023-05-25T07:03:11;101917.81;;;20.46;58.53
18749;BME280;9503;53.560;10.246;2023-05-25T07:05:38;101925.97;;;20.92;56.50
18749;BME280;9503;53.560;10.246;2023-05-25T07:08:05;101922.03;;;20.74;57.43
18749;BME280;9503;53.560;10.246;2023-05-25T07:10:32;101930.44;;;20.63;57.53
18749;BME280;9503;53.560;10.246;2023-05-25T07:12:59;101924.22;;;20.58;56.85
18749;BME280;9503;53.560;10.246;2023-05-25T07:15:26;101926.56;;;21.15;56.19
18749;BME280;9503;53.560;10.246;2023-05-25T07:17:54;101931.88;;;21.58;55.91
18749;BME280;9503;53.560;10.246;2023-05-25T07:20:21;101929.13;;;21.51;55.27
18749;BME280;9503;53.560;10.246;2023-05-25T07:22:48;101927.50;;;21.55;54.95
18749;BME280;9503;53.560;10.246;2023-05-25T07:25:15;101931.66;;;21.47;55.03
18749;BME280;9503;53.560;10.246;2023-05-25T07:27:41;101923.56;;;21.36;54.04
18749;BME280;9503;53.560;10.246;2023-05-25T07:30:11;101927.94;;;21.75;54.42
18749;BME280;9503;53.560;10.246;2023-05-25T07:32:38;101918.00;;;21.99;53.78
18749;BME280;9503;53.560;10.246;2023-05-25T07:35:06;101919.25;;;22.17;52.91
18749;BME280;9503;53.560;10.246;2023-05-25T07:37:33;101920.50;;;22.37;53.23
18749;BME280;9503;53.560;10.246;2023-05-25T07:39:59;101918.50;;;22.24;53.36
18749;BME280;9503;53.560;10.246;2023-05-25T07:42:26;101931.47;;;21.77;54.54
18749;BME280;9503;53.560;10.246;2023-05-25T07:44:58;101921.28;;;22.31;53.61
18749;BME280;9503;53.560;10.246;2023-05-25T07:47:25;101931.34;;;22.57;51.90
18749;BME280;9503;53.560;10.246;2023-05-25T07:49:52;101936.00;;;22.75;52.64
18749;BME280;9503;53.560;10.246;2023-05-25T07:52:20;101942.31;;;22.84;51.36
18749;BME280;9503;53.560;10.246;2023-05-25T07:54:47;101949.88;;;22.24;52.83
18749;BME280;9503;53.560;10.246;2023-05-25T07:57:13;101946.59;;;22.82;51.86
18749;BME280;9503;53.560;10.246;2023-05-25T07:59:40;101948.19;;;23.21;50.26
18749;BME280;9503;53.560;10.246;2023-05-25T08:02:06;101952.59;;;22.30;51.65
18749;BME280;9503;53.560;10.246;2023-05-25T08:04:33;101945.03;;;22.01;52.81
18749;BME280;9503;53.560;10.246;2023-05-25T08:06:59;101959.97;;;22.49;51.55
18749;BME280;9503;53.560;10.246;2023-05-25T08:09:28;101949.88;;;21.09;53.92
18749;BME280;9503;53.560;10.246;2023-05-25T08:11:54;101948.84;;;22.16;52.50
18749;BME280;9503;53.560;10.246;2023-05-25T08:14:21;101951.44;;;22.16;53.44
18749;BME280;9503;53.560;10.246;2023-05-25T08:16:49;101946.59;;;22.34;52.93
18749;BME280;9503;53.560;10.246;2023-05-25T08:19:16;101954.69;;;22.05;52.60
18749;BME280;9503;53.560;10.246;2023-05-25T08:21:43;101943.59;;;22.61;52.11
18749;BME280;9503;53.560;10.246;2023-05-25T08:24:09;101945.75;;;22.83;51.48
18749;BME280;9503;53.560;10.246;2023-05-25T08:26:37;101949.56;;;22.09;53.67
18749;BME280;9503;53.560;10.246;2023-05-25T08:29:05;101959.22;;;22.11;52.71
18749;BME280;9503;53.560;10.246;2023-05-25T08:31:32;101957.84;;;22.30;53.01
18749;BME280;9503;53.560;10.246;2023-05-25T08:33:58;101953.13;;;22.12;52.46
18749;BME280;9503;53.560;10.246;2023-05-25T08:36:26;101959.44;;;22.69;52.54
18749;BME280;9503;53.560;10.246;2023-05-25T08:38:53;101950.59;;;23.10;51.70
18749;BME280;9503;53.560;10.246;2023-05-25T08:41:19;101957.38;;;22.52;52.52
18749;BME280;9503;53.560;10.246;2023-05-25T08:43:49;101956.88;;;22.72;52.17
18749;BME280;9503;53.560;10.246;2023-05-25T08:46:24;101954.13;;;22.63;51.38
18749;BME280;9503;53.560;10.246;2023-05-25T08:48:57;101962.66;;;22.10;50.76
18749;BME280;9503;53.560;10.246;2023-05-25T08:51:27;101966.03;;;22.48;50.72
18749;BME280;9503;53.560;10.246;2023-05-25T08:53:59;101963.31;;;22.87;49.54
18749;BME280;9503;53.560;10.246;2023-05-25T08:56:33;101962.72;;;23.05;49.35
18749;BME280;9503;53.560;10.246;2023-05-25T08:59:10;101964.97;;;22.39;49.96
18749;BME280;9503;53.560;10.246;2023-05-25T09:01:43;101973.16;;;22.55;49.45
18749;BME280;9503;53.560;10.246;2023-05-25T09:04:11;101969.25;;;22.80;49.84
18749;BME280;9503;53.560;10.246;2023-05-25T09:06:39;101977.31;;;22.03;51.61
18749;BME280;9503;53.560;10.246;2023-05-25T09:09:06;101975.22;;;23.22;50.00
18749;BME280;9503;53.560;10.246;2023-05-25T09:11:34;101981.28;;;23.75;49.09
18749;BME280;9503;53.560;10.246;2023-05-25T09:14:00;101980.50;;;23.26;49.61
18749;BME280;9503;53.560;10.246;2023-05-25T09:16:30;101987.41;;;23.76;49.11
18749;BME280;9503;53.560;10.246;2023-05-25T09:18:57;101975.22;;;23.79;48.57
18749;BME280;9503;53.560;10.246;2023-05-25T09:21:24;101982.50;;;24.00;47.05
18749;BME280;9503;53.560;10.246;2023-05-25T09:23:51;101980.81;;;23.44;48.45
18749;BME280;9503;53.560;10.246;2023-05-25T09:26:18;101986.88;;;24.01;47.55
18749;BME280;9503;53.560;10.246;2023-05-25T09:28:45;101981.91;;;24.22;47.45
18749;BME280;9503;53.560;10.246;2023-05-25T09:43:41;101983.16;;;23.85;47.76
18749;BME280;9503;53.560;10.246;2023-05-25T09:46:08;101995.66;;;24.05;47.09
18749;BME280;9503;53.560;10.246;2023-05-25T09:48:35;101991.09;;;23.88;46.26
18749;BME280;9503;53.560;10.246;2023-05-25T09:51:02;101999.94;;;23.40;47.77
18749;BME280;9503;53.560;10.246;2023-05-25T09:53:30;101997.31;;;23.40;48.82
18749;BME280;9503;53.560;10.246;2023-05-25T09:55:57;101996.28;;;23.87;47.46
18749;BME280;9503;53.560;10.246;2023-05-25T09:58:25;101990.13;;;24.50;46.39
18749;BME280;9503;53.560;10.246;2023-05-25T10:00:54;101985.94;;;24.67;46.68
18749;BME280;9503;53.560;10.246;2023-05-25T10:03:20;101998.44;;;24.91;46.28
18749;BME280;9503;53.560;10.246;2023-05-25T10:05:47;101994.13;;;25.01;45.13
18749;BME280;9503;53.560;10.246;2023-05-25T10:08:16;101990.00;;;25.24;45.18
18749;BME280;9503;53.560;10.246;2023-05-25T10:10:47;101996.63;;;25.97;43.32
18749;BME280;9503;53.560;10.246;2023-05-25T10:13:14;101995.09;;;26.43;43.65
18749;BME280;9503;53.560;10.246;2023-05-25T10:15:44;101994.25;;;26.56;42.30
18749;BME280;9503;53.560;10.246;2023-05-25T10:18:14;102000.38;;;26.54;42.32
18749;BME280;9503;53.560;10.246;2023-05-25T10:20:45;102004.00;;;27.06;42.17
18749;BME280;9503;53.560;10.246;2023-05-25T10:23:14;101994.34;;;27.05;41.45
18749;BME280;9503;53.560;10.246;2023-05-25T10:25:43;101998.66;;;26.62;43.13
18749;BME280;9503;53.560;10.246;2023-05-25T10:28:13;101994.34;;;27.34;42.77
18749;BME280;9503;53.560;10.246;2023-05-25T10:30:42;102008.94;;;26.04;42.82
18749;BME280;9503;53.560;10.246;2023-05-25T10:33:09;102005.75;;;27.24;41.73
18749;BME280;9503;53.560;10.246;2023-05-25T10:35:38;102007.41;;;26.53;43.01
18749;BME280;9503;53.560;10.246;2023-05-25T10:38:05;102012.78;;;27.10;41.23
18749;BME280;9503;53.560;10.246;2023-05-25T10:40:33;102008.34;;;26.95;42.70
18749;BME280;9503;53.560;10.246;2023-05-25T10:43:00;102011.91;;;27.34;41.81
18749;BME280;9503;53.560;10.246;2023-05-25T10:45:28;102016.28;;;27.45;41.75
18749;BME280;9503;53.560;10.246;2023-05-25T10:47:54;102012.81;;;27.19;41.98
18749;BME280;9503;53.560;10.246;2023-05-25T10:50:23;102005.75;;;27.48;41.40
18749;BME280;9503;53.560;10.246;2023-05-25T10:53:01;102001.13;;;28.39;40.67
18749;BME280;9503;53.560;10.246;2023-05-25T10:55:41;102004.63;;;28.44;40.10
18749;BME280;9503;53.560;10.246;2023-05-25T10:58:08;101997.03;;;29.26;39.03
18749;BME280;9503;53.560;10.246;2023-05-25T11:00:35;102004.09;;;29.24;38.75
18749;BME280;9503;53.560;10.246;2023-05-25T11:03:03;101999.19;;;28.69;39.41
18749;BME280;9503;53.560;10.246;2023-05-25T11:05:34;102002.97;;;29.49;38.55
18749;BME280;9503;53.560;10.246;2023-05-25T11:08:05;101993.53;;;29.24;38.98
18749;BME280;9503;53.560;10.246;2023-05-25T11:13:36;101997.19;;;29.04;40.68
18749;BME280;9503;53.560;10.246;2023-05-25T11:16:13;101992.38;;;28.22;40.60
18749;BME280;9503;53.560;10.246;2023-05-25T11:18:42;101990.69;;;28.13;40.44
18749;BME280;9503;53.560;10.246;2023-05-25T11:21:14;101988.22;;;27.27;41.92
18749;BME280;9503;53.560;10.246;2023-05-25T11:23:54;101991.59;;;27.91;41.46
18749;BME280;9503;53.560;10.246;2023-05-25T11:26:22;101982.72;;;28.21;41.05
18749;BME280;9503;53.560;10.246;2023-05-25T11:28:50;101980.75;;;28.61;41.36
18749;BME280;9503;53.560;10.246;2023-05-25T11:31:27;101982.03;;;27.39;42.12
18749;BME280;9503;53.560;10.246;2023-05-25T11:33:58;101979.38;;;26.84;42.90
18749;BME280;9503;53.560;10.246;2023-05-25T11:36:26;101984.66;;;26.75;42.63
18749;BME280;9503;53.560;10.246;2023-05-25T11:38:57;101990.75;;;26.53;43.59
18749;BME280;9503;53.560;10.246;2023-05-25T11:41:25;101984.47;;;26.28;43.29
18749;BME280;9503;53.560;10.246;2023-05-25T11:43:53;101980.22;;;26.53;42.96
18749;BME280;9503;53.560;10.246;2023-05-25T11:46:21;101980.25;;;27.02;41.94
18749;BME280;9503;53.560;10.246;2023-05-25T11:48:50;101973.25;;;27.45;41.23
18749;BME280;9503;53.560;10.246;2023-05-25T11:51:18;101986.38;;;27.86;41.04
18749;BME280;9503;53.560;10.246;2023-05-25T11:53:45;101982.63;;;28.45;40.15
18749;BME280;9503;53.560;10.246;2023-05-25T11:56:15;101975.84;;;27.80;41.64
18749;BME280;9503;53.560;10.246;2023-05-25T11:58:42;101975.22;;;29.02;39.84
18749;BME280;9503;53.560;10.246;2023-05-25T12:01:14;101975.59;;;28.40;39.39
18749;BME280;9503;53.560;10.246;2023-05-25T12:03:41;101971.03;;;28.68;39.77
18749;BME280;9503;53.560;10.246;2023-05-25T12:06:08;101973.91;;;28.28;40.43
18749;BME280;9503;53.560;10.246;2023-05-25T12:08:36;101975.81;;;27.92;40.48
18749;BME280;9503;53.560;10.246;2023-05-25T12:11:03;101974.03;;;29.34;38.95
18749;BME280;9503;53.560;10.246;2023-05-25T12:13:31;101969.81;;;29.14;38.46
18749;BME280;9503;53.560;10.246;2023-05-25T12:15:58;101972.94;;;28.44;39.17
18749;BME280;9503;53.560;10.246;2023-05-25T12:18:26;101965.16;;;29.38;37.21
18749;BME280;9503;53.560;10.246;2023-05-25T12:20:53;101970.34;;;29.52;38.64
18749;BME280;9503;53.560;10.246;2023-05-25T12:23:21;101968.72;;;29.37;38.08
18749;BME280;9503;53.560;10.246;2023-05-25T12:25:48;101962.50;;;29.41;38.74
18749;BME280;9503;53.560;10.246;2023-05-25T12:28:16;101967.63;;;30.35;38.29
18749;BME280;9503;53.560;10.246;2023-05-25T12:30:44;101966.59;;;29.72;38.92
18749;BME280;9503;53.560;10.246;2023-05-25T12:33:12;101970.34;;;29.52;39.21
18749;BME280;9503;53.560;10.246;2023-05-25T12:35:45;101967.13;;;29.21;38.62
18749;BME280;9503;53.560;10.246;2023-05-25T12:38:13;101963.56;;;30.06;37.82
18749;BME280;9503;53.560;10.246;2023-05-25T12:40:40;101963.16;;;30.37;37.50
18749;BME280;9503;53.560;10.246;2023-05-25T12:43:07;101959.66;;;30.95;37.04
18749;BME280;9503;53.560;10.246;2023-05-25T12:45:38;101961.69;;;30.16;37.58
18749;BME280;9503;53.560;10.246;2023-05-25T12:48:06;101967.38;;;29.81;38.38
18749;BME280;9503;53.560;10.246;2023-05-25T12:50:33;101955.59;;;29.31;37.98
18749;BME280;9503;53.560;10.246;2023-05-25T12:53:00;101950.88;;;29.62;38.44
18749;BME280;9503;53.560;10.246;2023-05-25T12:55:28;101953.78;;;29.34;39.13
18749;BME280;9503;53.560;10.246;2023-05-25T12:57:56;101959.25;;;29.96;37.94
18749;BME280;9503;53.560;10.246;2023-05-25T13:00:24;101950.16;;;29.43;37.45
18749;BME280;9503;53.560;10.246;2023-05-25T13:02:52;101953.81;;;30.74;37.28
18749;BME280;9503;53.560;10.246;2023-05-25T13:05:21;101946.34;;;30.98;36.54
18749;BME280;9503;53.560;10.246;2023-05-25T13:07:49;101944.91;;;30.78;36.36
18749;BME280;9503;53.560;10.246;2023-05-25T13:10:16;101945.06;;;30.68;36.33